createdAt,value
2022-10-02T00:00:25.029Z,4.13
2022-10-02T00:02:35.783Z,6.72
2022-10-02T00:04:50.613Z,6.13
2022-10-02T00:07:02.857Z,8.52
2022-10-02T00:09:15.568Z,10.02
2022-10-02T00:11:26.285Z,7.47
2022-10-02T00:13:40.478Z,8.32
2022-10-02T00:15:47.967Z,6.85
2022-10-02T00:17:58.343Z,8.93
2022-10-02T00:20:15.951Z,9.80
2022-10-02T00:22:35.521Z,8.30
2022-10-02T00:24:46.596Z,8.60
2022-10-02T00:27:01.213Z,12.60
2022-10-02T00:29:21.335Z,6.35
2022-10-02T00:31:40.825Z,9.40
2022-10-02T00:34:00.233Z,6.20
2022-10-02T00:36:21.442Z,5.63
2022-10-02T00:38:44.744Z,5.43
2022-10-02T00:41:17.679Z,5.22
2022-10-02T00:43:34.129Z,5.25
2022-10-02T00:46:06.300Z,4.72
2022-10-02T00:48:36.159Z,6.63
2022-10-02T00:50:52.198Z,6.30
2022-10-02T00:53:12.080Z,7.15
2022-10-02T00:55:43.435Z,6.53
2022-10-02T00:58:10.217Z,5.03
2022-10-02T01:00:20.267Z,8.05
2022-10-02T01:02:47.415Z,7.38
2022-10-02T01:04:54.392Z,7.85
2022-10-02T01:07:01.830Z,6.65
2022-10-02T01:09:10.650Z,7.22
2022-10-02T01:11:17.429Z,6.03
2022-10-02T01:13:24.844Z,5.00
2022-10-02T01:15:35.113Z,5.07
2022-10-02T01:17:42.047Z,5.63
2022-10-02T01:19:48.917Z,5.93
2022-10-02T01:22:02.448Z,9.00
2022-10-02T01:24:17.408Z,5.63
2022-10-02T01:26:26.084Z,6.72
2022-10-02T01:28:33.871Z,4.65
2022-10-02T01:30:44.125Z,6.90
2022-10-02T01:32:55.043Z,5.47
2022-10-02T01:35:02.941Z,8.90
2022-10-02T01:37:10.277Z,6.28
2022-10-02T01:39:17.715Z,7.05
2022-10-02T01:41:26.544Z,4.57
2022-10-02T01:43:36.071Z,4.75
2022-10-02T01:46:10.746Z,6.78
2022-10-02T01:48:24.943Z,5.07
2022-10-02T01:50:36.120Z,6.00
2022-10-02T01:52:52.824Z,4.72
2022-10-02T01:55:13.222Z,5.38
2022-10-02T01:57:35.816Z,4.70
2022-10-02T01:59:54.202Z,4.45
2022-10-02T02:02:14.249Z,4.40
2022-10-02T02:04:26.998Z,5.00
2022-10-02T02:06:41.303Z,5.72
2022-10-02T02:09:01.733Z,4.65
2022-10-02T02:11:15.575Z,4.43
2022-10-02T02:13:29.363Z,5.53
2022-10-02T02:15:43.974Z,5.07
2022-10-02T02:17:55.502Z,4.57
2022-10-02T02:20:05.809Z,5.72
2022-10-02T02:22:19.234Z,5.80
2022-10-02T02:24:29.694Z,6.72
2022-10-02T02:26:38.566Z,5.32
2022-10-02T02:28:52.001Z,5.43
2022-10-02T02:31:00.607Z,5.65
2022-10-02T02:33:12.141Z,5.05
2022-10-02T02:35:21.525Z,4.78
2022-10-02T02:37:30.997Z,5.28
2022-10-02T02:39:46.998Z,4.82
2022-10-02T02:41:58.532Z,5.60
2022-10-02T02:44:10.177Z,6.32
2022-10-02T02:48:29.038Z,5.63
2022-10-02T02:50:39.809Z,8.18
2022-10-02T02:52:52.513Z,4.73
2022-10-02T02:55:06.505Z,6.22
2022-10-02T02:57:16.092Z,5.95
2022-10-02T02:59:28.907Z,5.85
2022-10-02T03:01:36.036Z,3.92
2022-10-02T03:03:43.425Z,5.80
2022-10-02T03:05:56.493Z,5.50
2022-10-02T03:08:07.054Z,5.57
2022-10-02T03:10:19.970Z,4.80
2022-10-02T03:12:39.132Z,7.18
2022-10-02T03:15:00.548Z,4.43
2022-10-02T03:17:19.044Z,6.00
2022-10-02T03:19:39.903Z,4.53
2022-10-02T03:21:57.369Z,5.22
2022-10-02T03:24:11.872Z,4.68
2022-10-02T03:26:22.537Z,4.90
2022-10-02T03:28:55.082Z,6.03
2022-10-02T03:31:04.391Z,5.30
2022-10-02T03:33:14.032Z,7.22
2022-10-02T03:35:21.928Z,4.05
2022-10-02T03:37:30.739Z,4.13
2022-10-02T03:39:37.731Z,3.88
2022-10-02T03:41:44.654Z,4.90
2022-10-02T03:43:51.734Z,3.25
2022-10-02T03:45:58.807Z,2.47
2022-10-02T03:48:08.026Z,3.35
2022-10-02T03:50:16.862Z,3.85
2022-10-02T03:52:25.922Z,3.97
2022-10-02T03:54:38.348Z,3.83
2022-10-02T03:56:54.645Z,3.25
2022-10-02T03:59:05.610Z,3.67
2022-10-02T04:01:20.142Z,4.22
2022-10-02T04:03:32.169Z,3.60
2022-10-02T04:05:44.971Z,3.97
2022-10-02T04:07:55.108Z,3.63
2022-10-02T04:10:18.031Z,3.50
2022-10-02T04:12:30.179Z,3.83
2022-10-02T04:14:41.350Z,2.80
2022-10-02T04:16:54.063Z,4.15
2022-10-02T04:19:07.177Z,4.45
2022-10-02T04:21:18.667Z,4.13
2022-10-02T04:25:37.579Z,4.75
2022-10-02T04:27:46.940Z,3.42
2022-10-02T04:32:27.471Z,5.60
2022-10-02T04:34:34.362Z,3.72
2022-10-02T04:36:51.795Z,4.65
2022-10-02T04:39:21.870Z,5.10
2022-10-02T04:41:50.938Z,3.72
2022-10-02T04:44:07.707Z,5.05
2022-10-02T04:46:25.486Z,4.38
2022-10-02T04:49:02.159Z,5.97
2022-10-02T04:51:38.574Z,4.30
2022-10-02T04:53:58.713Z,4.35
2022-10-02T04:56:23.351Z,4.07
2022-10-02T04:58:52.548Z,6.20
2022-10-02T05:01:10.122Z,4.28
2022-10-02T05:03:32.257Z,4.45
2022-10-02T05:05:59.410Z,5.93
2022-10-02T05:08:29.071Z,3.40
2022-10-02T05:10:52.441Z,3.80
2022-10-02T05:13:08.931Z,3.17
2022-10-02T05:15:31.835Z,4.30
2022-10-02T05:17:55.041Z,4.25
2022-10-02T05:20:20.607Z,5.18
2022-10-02T05:22:54.248Z,4.10
2022-10-02T05:25:31.023Z,4.70
2022-10-02T05:28:10.697Z,3.55
2022-10-02T05:30:19.690Z,3.25
2022-10-02T05:32:55.914Z,4.82
2022-10-02T05:35:16.760Z,4.78
2022-10-02T05:37:37.354Z,5.43
2022-10-02T05:39:53.493Z,3.85
2022-10-02T05:42:07.279Z,6.38
2022-10-02T05:44:19.683Z,3.05
2022-10-02T05:46:28.790Z,3.35
2022-10-02T05:48:41.418Z,3.33
2022-10-02T05:50:54.439Z,5.65
2022-10-02T05:53:04.629Z,3.67
2022-10-02T05:55:22.039Z,3.40
2022-10-02T05:57:34.364Z,5.47
2022-10-02T05:59:47.948Z,2.88
2022-10-02T06:01:57.169Z,2.33
2022-10-02T06:04:11.051Z,3.28
2022-10-02T06:06:23.994Z,3.50
2022-10-02T06:08:36.761Z,3.33
2022-10-02T06:10:51.527Z,3.00
2022-10-02T06:13:01.809Z,4.40
2022-10-02T06:15:19.418Z,3.67
2022-10-02T06:17:30.521Z,3.90
2022-10-02T06:19:42.604Z,4.45
2022-10-02T06:21:54.125Z,4.25
2022-10-02T06:26:15.473Z,3.65
2022-10-02T06:28:26.350Z,4.32
2022-10-02T06:30:36.156Z,3.75
2022-10-02T06:32:49.238Z,3.60
2022-10-02T06:34:56.303Z,3.63
2022-10-02T06:37:39.039Z,5.32
2022-10-02T06:40:15.098Z,3.10
2022-10-02T06:42:40.622Z,3.00
2022-10-02T06:44:55.876Z,6.85
2022-10-02T06:47:18.683Z,2.42
2022-10-02T06:49:34.554Z,1.60
2022-10-02T06:51:53.780Z,1.35
2022-10-02T06:54:20.300Z,1.23
2022-10-02T06:56:43.141Z,1.88
2022-10-02T06:59:06.215Z,1.67
2022-10-02T07:01:22.563Z,2.20
2022-10-02T07:04:07.475Z,1.65
2022-10-02T07:06:26.571Z,3.67
2022-10-02T07:08:47.185Z,1.17
2022-10-02T07:11:04.350Z,2.78
2022-10-02T07:13:25.823Z,3.53
2022-10-02T07:15:55.601Z,2.97
2022-10-02T07:18:11.463Z,2.03
2022-10-02T07:20:43.020Z,3.13
2022-10-02T07:23:07.681Z,1.90
2022-10-02T07:25:51.651Z,3.13
2022-10-02T07:28:05.266Z,2.97
2022-10-02T07:30:15.981Z,2.42
2022-10-02T07:32:41.244Z,3.45
2022-10-02T07:35:04.051Z,3.33
2022-10-02T07:37:25.419Z,2.85
2022-10-02T07:39:46.726Z,4.20
2022-10-02T07:42:29.171Z,3.15
2022-10-02T07:44:54.112Z,3.47
2022-10-02T07:47:14.424Z,2.92
2022-10-02T07:49:37.732Z,3.00
2022-10-02T07:51:51.161Z,5.28
2022-10-02T07:54:05.426Z,2.42
2022-10-02T07:56:20.994Z,2.45
2022-10-02T07:58:38.031Z,3.05
2022-10-02T08:00:51.259Z,3.65
2022-10-02T08:03:03.184Z,2.50
2022-10-02T08:07:24.184Z,2.45
2022-10-02T08:09:38.336Z,2.40
2022-10-02T08:11:49.924Z,2.92
2022-10-02T08:14:03.606Z,4.18
2022-10-02T08:16:14.595Z,2.67
2022-10-02T08:18:34.571Z,2.15
2022-10-02T08:20:47.467Z,2.35
2022-10-02T08:22:59.000Z,3.00
2022-10-02T08:25:13.298Z,2.30
2022-10-02T08:27:24.321Z,2.38
2022-10-02T08:29:41.281Z,2.72
2022-10-02T08:31:49.022Z,2.55
2022-10-02T08:33:56.567Z,4.18
2022-10-02T08:36:19.447Z,3.67
2022-10-02T08:38:39.705Z,4.15
2022-10-02T08:41:12.638Z,4.78
2022-10-02T08:44:09.060Z,5.43
2022-10-02T08:46:43.853Z,3.92
2022-10-02T08:49:25.595Z,4.03
2022-10-02T08:52:10.727Z,2.75
2022-10-02T08:54:55.019Z,3.42
2022-10-02T08:57:28.210Z,4.30
2022-10-02T09:00:02.950Z,3.42
2022-10-02T09:02:59.015Z,2.65
2022-10-02T09:05:34.357Z,4.22
2022-10-02T09:08:12.164Z,4.30
2022-10-02T09:11:04.709Z,4.60
2022-10-02T09:15:48.710Z,4.70
2022-10-02T09:18:14.886Z,2.78
2022-10-02T09:20:57.557Z,2.92
2022-10-02T09:23:36.119Z,4.38
2022-10-02T09:25:59.621Z,3.30
2022-10-02T09:28:41.629Z,4.85
2022-10-02T09:31:26.959Z,2.88
2022-10-02T09:34:03.628Z,3.30
2022-10-02T09:36:42.564Z,2.83
2022-10-02T09:39:22.351Z,3.50
2022-10-02T09:42:00.261Z,3.60
2022-10-02T09:44:40.458Z,2.33
2022-10-02T09:47:13.735Z,3.35
2022-10-02T09:50:02.917Z,8.45
2022-10-02T09:52:52.987Z,3.50
2022-10-02T09:55:38.483Z,2.78
2022-10-02T09:58:28.687Z,3.00
2022-10-02T10:01:10.220Z,3.67
2022-10-02T10:03:47.297Z,2.90
2022-10-02T10:06:35.735Z,2.85
2022-10-02T10:09:04.377Z,3.08
2022-10-02T10:11:59.226Z,3.35
2022-10-02T10:14:59.103Z,3.22
2022-10-02T10:17:40.272Z,2.90
2022-10-02T10:20:24.061Z,3.75
2022-10-02T10:23:01.100Z,3.10
2022-10-02T10:25:32.396Z,3.25
2022-10-02T10:28:16.831Z,4.75
2022-10-02T10:30:48.653Z,3.58
2022-10-02T10:33:25.328Z,3.38
2022-10-02T10:36:30.979Z,5.47
2022-10-02T10:38:53.367Z,3.42
2022-10-02T10:41:15.654Z,2.88
2022-10-02T10:43:56.217Z,3.53
2022-10-02T10:46:18.850Z,5.45
2022-10-02T10:48:49.932Z,5.22
2022-10-02T10:51:05.788Z,3.63
2022-10-02T10:53:30.736Z,3.38
2022-10-02T10:55:53.738Z,3.95
2022-10-02T10:58:22.328Z,6.18
2022-10-02T11:00:34.008Z,5.28
2022-10-02T11:05:37.628Z,5.90
2022-10-02T11:08:07.233Z,5.07
2022-10-02T11:10:40.016Z,6.28
2022-10-02T11:13:25.291Z,4.07
2022-10-02T11:16:00.299Z,4.80
2022-10-02T11:18:35.821Z,3.33
2022-10-02T11:21:05.666Z,4.28
2022-10-02T11:23:44.968Z,5.22
2022-10-02T11:26:23.235Z,3.83
2022-10-02T11:29:08.761Z,4.55
2022-10-02T11:31:28.302Z,4.90
2022-10-02T11:34:05.215Z,4.07
2022-10-02T11:36:43.573Z,6.38
2022-10-02T11:39:29.306Z,9.35
2022-10-02T11:41:56.361Z,7.55
2022-10-02T11:44:29.961Z,3.55
2022-10-02T11:47:03.199Z,7.82
2022-10-02T11:49:46.388Z,4.50
2022-10-02T11:52:24.694Z,5.43
2022-10-02T11:54:47.074Z,5.22
2022-10-02T11:57:09.614Z,4.60
2022-10-02T11:59:31.882Z,5.43
2022-10-02T12:01:46.367Z,4.22
2022-10-02T12:04:05.134Z,5.82
2022-10-02T12:06:24.558Z,5.28
2022-10-02T12:08:49.580Z,4.90
2022-10-02T12:11:02.334Z,5.70
2022-10-02T12:13:43.115Z,3.00
2022-10-02T12:15:57.251Z,4.07
2022-10-02T12:18:24.964Z,8.25
2022-10-02T12:21:02.563Z,3.22
2022-10-02T12:23:36.927Z,3.50
2022-10-02T12:26:13.498Z,4.53
2022-10-02T12:28:26.738Z,4.03
2022-10-02T12:30:41.769Z,6.43
2022-10-02T12:33:08.425Z,3.97
2022-10-02T12:35:32.503Z,5.70
2022-10-02T12:37:49.771Z,5.20
2022-10-02T12:40:05.349Z,6.97
2022-10-02T12:42:43.763Z,12.68
2022-10-02T12:45:29.164Z,8.63
2022-10-02T12:48:13.034Z,9.95
2022-10-02T12:50:31.068Z,8.68
2022-10-02T12:53:09.945Z,10.73
2022-10-02T12:55:51.124Z,7.72
2022-10-02T12:58:11.249Z,7.85
2022-10-02T13:00:20.385Z,9.00
2022-10-02T13:03:01.662Z,6.70
2022-10-02T13:05:39.816Z,7.03
2022-10-02T13:08:17.273Z,7.03
2022-10-02T13:10:28.032Z,5.75
2022-10-02T13:12:52.517Z,5.70
2022-10-02T13:15:38.254Z,9.55
2022-10-02T13:17:51.715Z,5.78
2022-10-02T13:20:07.345Z,6.47
2022-10-02T13:22:19.824Z,5.97
2022-10-02T13:24:48.744Z,7.15
2022-10-02T13:27:03.419Z,6.50
2022-10-02T13:29:38.107Z,4.82
2022-10-02T13:32:14.457Z,4.43
2022-10-02T13:34:41.078Z,4.55
2022-10-02T13:37:01.282Z,5.57
2022-10-02T13:39:30.335Z,6.40
2022-10-02T13:41:50.871Z,3.92
2022-10-02T13:44:09.685Z,5.18
2022-10-02T13:46:29.437Z,3.20
2022-10-02T13:48:55.946Z,5.38
2022-10-02T13:51:08.084Z,3.67
2022-10-02T13:53:49.279Z,5.78
2022-10-02T13:56:00.525Z,4.47
2022-10-02T13:58:26.065Z,2.58
2022-10-02T14:00:53.394Z,6.40
2022-10-02T14:03:10.061Z,3.50
2022-10-02T14:05:29.435Z,4.93
2022-10-02T14:07:50.925Z,3.70
2022-10-02T14:10:05.975Z,2.58
2022-10-02T14:12:31.171Z,2.90
2022-10-02T14:14:59.095Z,5.47
2022-10-02T14:17:19.691Z,2.80
2022-10-02T14:19:39.778Z,5.10
2022-10-02T14:21:58.464Z,4.28
2022-10-02T14:24:22.184Z,4.00
2022-10-02T14:26:36.021Z,4.22
2022-10-02T14:29:35.520Z,4.90
2022-10-02T14:32:07.991Z,3.88
2022-10-02T14:35:02.676Z,3.65
2022-10-02T14:37:45.502Z,2.75
2022-10-02T14:39:53.836Z,4.97
2022-10-02T14:42:26.974Z,4.28
2022-10-02T14:44:52.119Z,5.50
2022-10-02T14:47:25.559Z,4.38
2022-10-02T14:50:15.399Z,5.38
2022-10-02T14:52:44.493Z,3.70
2022-10-02T14:55:16.522Z,3.90
2022-10-02T14:57:48.162Z,2.47
2022-10-02T15:00:18.181Z,3.17
2022-10-02T15:02:52.251Z,4.60
2022-10-02T15:05:08.518Z,3.58
2022-10-02T15:07:16.852Z,3.70
2022-10-02T15:09:30.022Z,3.72
2022-10-02T15:12:11.952Z,2.90
2022-10-02T15:14:28.045Z,5.50
2022-10-02T15:17:02.276Z,2.72
2022-10-02T15:19:18.768Z,2.33
2022-10-02T15:21:31.311Z,3.40
2022-10-02T15:23:47.602Z,3.53
2022-10-02T15:26:11.705Z,2.40
2022-10-02T15:28:36.246Z,3.10
2022-10-02T15:30:48.385Z,3.13
2022-10-02T15:35:27.741Z,5.28
2022-10-02T15:37:44.900Z,4.60
2022-10-02T15:40:20.498Z,3.28
2022-10-02T15:42:50.233Z,4.55
2022-10-02T15:45:14.694Z,4.38
2022-10-02T15:47:40.104Z,2.97
2022-10-02T15:50:03.830Z,4.70
2022-10-02T15:52:18.173Z,3.05
2022-10-02T15:54:51.741Z,4.43
2022-10-02T15:57:22.663Z,4.88
2022-10-02T15:59:55.032Z,2.75
2022-10-02T16:02:18.829Z,4.68
2022-10-02T16:04:35.150Z,1.98
2022-10-02T16:06:58.306Z,2.80
2022-10-02T16:09:19.245Z,2.88
2022-10-02T16:11:58.803Z,6.05
2022-10-02T16:14:11.212Z,5.40
2022-10-02T16:16:33.172Z,2.78
2022-10-02T16:21:28.714Z,5.82
2022-10-02T16:23:57.192Z,2.33
2022-10-02T16:26:29.616Z,2.90
2022-10-02T16:28:55.998Z,6.07
2022-10-02T16:31:31.099Z,2.97
2022-10-02T16:33:53.015Z,3.25
2022-10-02T16:36:30.963Z,1.85
2022-10-02T16:38:51.562Z,2.67
2022-10-02T16:41:01.557Z,2.30
2022-10-02T16:43:40.077Z,2.85
2022-10-02T16:46:00.294Z,6.45
2022-10-02T16:48:15.121Z,3.67
2022-10-02T16:50:28.908Z,3.35
2022-10-02T16:52:43.463Z,3.28
2022-10-02T16:54:54.842Z,4.93
2022-10-02T16:57:07.964Z,4.30
2022-10-02T16:59:19.022Z,3.10
2022-10-02T17:01:33.850Z,4.50
2022-10-02T17:03:47.890Z,4.03
2022-10-02T17:05:59.682Z,5.05
2022-10-02T17:10:27.612Z,2.17
2022-10-02T17:12:43.446Z,3.72
2022-10-02T17:14:57.745Z,3.40
2022-10-02T17:17:08.254Z,2.65
2022-10-02T17:19:31.512Z,3.67
2022-10-02T17:21:49.242Z,4.03
2022-10-02T17:24:18.492Z,2.80
2022-10-02T17:26:35.623Z,3.30
2022-10-02T17:28:51.234Z,2.97
2022-10-02T17:31:36.772Z,5.00
2022-10-02T17:33:51.167Z,3.05
2022-10-02T17:36:08.793Z,4.03
2022-10-02T17:38:45.721Z,5.00
2022-10-02T17:41:00.381Z,2.88
2022-10-02T17:43:18.534Z,3.10
2022-10-02T17:45:39.105Z,3.47
2022-10-02T17:48:02.585Z,5.07
2022-10-02T17:50:38.826Z,4.47
2022-10-02T17:53:10.650Z,2.05
2022-10-02T17:55:54.476Z,3.97
2022-10-02T17:58:14.268Z,3.17
2022-10-02T18:00:25.034Z,2.38
2022-10-02T18:03:05.185Z,3.30
2022-10-02T18:05:27.371Z,3.58
2022-10-02T18:07:55.801Z,3.40
2022-10-02T18:10:15.272Z,6.28
2022-10-02T18:12:40.165Z,3.10
2022-10-02T18:15:11.362Z,3.85
2022-10-02T18:17:27.963Z,3.85
2022-10-02T18:19:49.634Z,2.10
2022-10-02T18:22:18.921Z,2.40
2022-10-02T18:24:41.527Z,3.03
2022-10-02T18:27:09.291Z,2.78
2022-10-02T18:29:31.119Z,2.47
2022-10-02T18:31:56.395Z,3.10
2022-10-02T18:34:28.692Z,3.78
2022-10-02T18:36:51.131Z,1.65
2022-10-02T18:39:14.750Z,4.05
2022-10-02T18:41:42.615Z,2.45
2022-10-02T18:44:01.625Z,4.65
2022-10-02T18:46:18.533Z,2.40
2022-10-02T18:48:45.479Z,4.50
2022-10-02T18:51:08.328Z,2.80
2022-10-02T18:53:40.495Z,2.15
2022-10-02T18:56:04.988Z,3.00
2022-10-02T18:58:30.443Z,3.20
2022-10-02T19:01:03.397Z,2.08
2022-10-02T19:03:30.374Z,4.43
2022-10-02T19:05:42.507Z,6.70
2022-10-02T19:07:55.850Z,2.00
2022-10-02T19:10:29.093Z,2.22
2022-10-02T19:12:36.682Z,3.08
2022-10-02T19:14:47.909Z,2.38
2022-10-02T19:17:02.769Z,2.33
2022-10-02T19:19:25.415Z,3.55
2022-10-02T19:21:32.595Z,1.63
2022-10-02T19:23:42.443Z,4.35
2022-10-02T19:25:51.260Z,3.47
2022-10-02T19:28:00.675Z,2.60
2022-10-02T19:30:24.619Z,1.88
2022-10-02T19:32:34.514Z,3.38
2022-10-02T19:34:43.189Z,2.97
2022-10-02T19:36:53.185Z,3.03
2022-10-02T19:39:04.045Z,1.80
2022-10-02T19:41:13.326Z,1.75
2022-10-02T19:43:27.222Z,3.47
2022-10-02T19:45:37.709Z,3.08
2022-10-02T19:47:48.439Z,3.17
2022-10-02T19:49:57.719Z,4.05
2022-10-02T19:52:05.211Z,4.65
2022-10-02T19:54:18.329Z,2.80
2022-10-02T19:56:30.682Z,3.03
2022-10-02T19:58:42.574Z,1.58
2022-10-02T20:00:52.646Z,1.73
2022-10-02T20:03:02.981Z,1.70
2022-10-02T20:05:17.536Z,2.55
2022-10-02T20:07:27.070Z,2.20
2022-10-02T20:09:39.017Z,2.72
2022-10-02T20:11:48.502Z,4.93
2022-10-02T20:14:01.467Z,3.40
2022-10-02T20:16:34.570Z,3.88
2022-10-02T20:18:42.051Z,2.38
2022-10-02T20:20:50.813Z,4.20
2022-10-02T20:23:02.604Z,2.10
2022-10-02T20:25:14.298Z,5.43
2022-10-02T20:27:27.667Z,2.85
2022-10-02T20:29:46.585Z,3.47
2022-10-02T20:32:00.871Z,4.35
2022-10-02T20:34:12.357Z,2.90
2022-10-02T20:36:22.922Z,2.85
2022-10-02T20:38:34.144Z,4.00
2022-10-02T20:40:44.095Z,2.03
2022-10-02T20:42:59.315Z,3.58
2022-10-02T20:45:06.746Z,4.63
2022-10-02T20:47:45.313Z,2.33
2022-10-02T20:50:13.026Z,3.47
2022-10-02T20:52:50.927Z,3.03
2022-10-02T20:55:03.536Z,3.92
2022-10-02T20:58:01.210Z,3.65
2022-10-02T21:00:16.679Z,2.38
2022-10-02T21:02:44.649Z,3.30
2022-10-02T21:05:22.804Z,5.68
2022-10-02T21:07:51.755Z,3.72
2022-10-02T21:10:41.690Z,2.67
2022-10-02T21:13:07.244Z,6.68
2022-10-02T21:15:53.439Z,7.78
2022-10-02T21:18:24.311Z,8.57
2022-10-02T21:21:02.690Z,7.00
2022-10-02T21:23:47.147Z,6.50
2022-10-02T21:26:14.396Z,8.10
2022-10-02T21:28:57.060Z,8.68
2022-10-02T21:31:15.756Z,4.95
2022-10-02T21:33:25.656Z,8.45
2022-10-02T21:35:45.544Z,6.30
2022-10-02T21:38:15.656Z,8.40
2022-10-02T21:40:55.348Z,5.50
2022-10-02T21:43:29.120Z,5.05
2022-10-02T21:46:28.109Z,5.82
2022-10-02T21:49:15.218Z,7.72
2022-10-02T21:52:08.018Z,6.60
2022-10-02T21:54:53.294Z,6.97
2022-10-02T21:57:45.841Z,6.05
2022-10-02T22:00:14.064Z,6.22
2022-10-02T22:03:02.161Z,6.47
2022-10-02T22:05:38.454Z,9.70
2022-10-02T22:07:51.290Z,9.43
2022-10-02T22:10:05.284Z,10.18
2022-10-02T22:12:39.491Z,11.65
2022-10-02T22:14:54.043Z,7.60
2022-10-02T22:17:15.100Z,8.63
2022-10-02T22:19:37.296Z,8.67
2022-10-02T22:22:08.430Z,8.77
2022-10-02T22:24:32.351Z,7.75
2022-10-02T22:27:01.753Z,6.88
2022-10-02T22:29:16.308Z,8.55
2022-10-02T22:31:45.506Z,6.78
2022-10-02T22:34:06.052Z,7.43
2022-10-02T22:36:33.047Z,6.78
2022-10-02T22:38:41.101Z,8.88
2022-10-02T22:40:53.452Z,7.18
2022-10-02T22:43:07.259Z,7.15
2022-10-02T22:45:23.329Z,7.20
2022-10-02T22:47:37.321Z,7.32
2022-10-02T22:49:49.935Z,6.88
2022-10-02T22:52:03.920Z,7.40
2022-10-02T22:54:23.960Z,8.88
2022-10-02T22:56:35.896Z,11.52
2022-10-02T22:58:50.862Z,4.28
2022-10-02T23:01:03.711Z,3.50
2022-10-02T23:03:20.483Z,2.10
2022-10-02T23:17:53.714Z,1.45
2022-10-02T23:20:05.752Z,5.05
2022-10-02T23:24:29.486Z,2.55
2022-10-02T23:26:40.258Z,1.52
2022-10-02T23:28:55.632Z,1.48
2022-10-02T23:31:15.944Z,2.65
2022-10-02T23:33:28.223Z,2.33
2022-10-02T23:35:41.797Z,5.43
2022-10-02T23:37:54.611Z,1.80
2022-10-02T23:40:15.977Z,1.88
2022-10-02T23:42:29.968Z,2.22
2022-10-02T23:44:42.789Z,4.88
2022-10-02T23:47:04.400Z,3.35
2022-10-02T23:49:15.576Z,3.47
2022-10-02T23:51:30.642Z,5.95
2022-10-02T23:54:18.527Z,1.42
2022-10-02T23:56:45.473Z,2.80
2022-10-02T23:59:14.773Z,3.08
